Time,TemperatureF,DewpointF,PressureIn,WindDirection,WindDirectionDegrees,WindSpeedMPH,WindSpeedGustMPH,Humidity,HourlyPrecipIn,Conditions,Clouds,dailyrainin,SoftwareType,DateUTC
2013-09-01 00:01:00,64.7,60.8,29.87,ESE,103,1.0,0.0,87,0.00,,CLR,0.00,VWS V14.01,2013-09-01 07:01:00,
2013-09-01 00:06:00,64.8,60.8,29.87,SE,132,2.0,0.0,87,0.00,,CLR,0.00,VWS V14.01,2013-09-01 07:06:00,
2013-09-01 00:11:00,64.9,60.9,29.87,ESE,113,0.0,0.0,87,0.00,,CLR,0.00,VWS V14.01,2013-09-01 07:11:00,
2013-09-01 00:16:00,64.8,60.8,29.88,ESE,104,1.0,0.0,87,0.00,,CLR,0.00,VWS V14.01,2013-09-01 07:16:00,
2013-09-01 00:21:00,64.8,60.8,29.88,ESE,114,0.0,0.0,87,0.00,,CLR,0.00,VWS V14.01,2013-09-01 07:21:00,
2013-09-01 00:26:00,64.7,60.8,29.88,SE,129,4.0,0.0,87,0.00,,CLR,0.00,VWS V14.01,2013-09-01 07:26:00,
2013-09-01 00:31:00,64.6,60.7,29.88,East,99,5.0,0.0,87,0.00,,CLR,0.00,VWS V14.01,2013-09-01 07:31:00,
2013-09-01 00:36:00,64.5,60.9,29.88,ESE,118,5.0,0.0,88,0.00,,CLR,0.00,VWS V14.01,2013-09-01 07:36:00,
2013-09-01 00:41:00,64.4,60.8,29.88,ESE,119,2.0,0.0,88,0.00,,CLR,0.00,VWS V14.01,2013-09-01 07:41:00,
2013-09-01 00:46:00,64.3,60.7,29.88,ESE,117,2.0,0.0,88,0.00,,CLR,0.00,VWS V14.01,2013-09-01 07:46:00,
2013-09-01 00:51:00,64.3,60.7,29.88,East,90,1.0,0.0,88,0.00,,CLR,0.00,VWS V14.01,2013-09-01 07:51:00,
2013-09-01 00:56:00,64.2,60.6,29.88,SE,125,0.0,0.0,88,0.00,,CLR,0.00,VWS V14.01,2013-09-01 07:56:00,
2013-09-01 01:01:00,64.0,60.4,29.88,ESE,107,0.0,0.0,88,0.00,,CLR,0.00,VWS V14.01,2013-09-01 08:01:00,
2013-09-01 01:06:00,63.9,60.3,29.88,ESE,105,2.0,0.0,88,0.00,,CLR,0.00,VWS V14.01,2013-09-01 08:06:00,
2013-09-01 01:11:00,63.8,60.2,29.88,ENE,75,3.0,0.0,88,0.00,,CLR,0.00,VWS V14.01,2013-09-01 08:11:00,
2013-09-01 01:16:00,63.7,60.1,29.88,ESE,109,0.0,0.0,88,0.00,,CLR,0.00,VWS V14.01,2013-09-01 08:16:00,
2013-09-01 01:21:00,63.6,60.0,29.88,ESE,114,4.0,0.0,88,0.00,,CLR,0.00,VWS V14.01,2013-09-01 08:21:00,
2013-09-01 01:26:00,63.6,60.0,29.88,East,85,4.0,0.0,88,0.00,,CLR,0.00,VWS V14.01,2013-09-01 08:26:00,
2013-09-01 01:31:00,63.5,59.9,29.88,ESE,113,3.0,0.0,88,0.00,,CLR,0.00,VWS V14.01,2013-09-01 08:31:00,
2013-09-01 01:36:00,63.4,59.8,29.88,NE,40,1.0,0.0,88,0.00,,CLR,0.00,VWS V14.01,2013-09-01 08:36:00,
2013-09-01 01:41:00,63.3,59.7,29.88,ESE,113,3.0,0.0,88,0.00,,CLR,0.00,VWS V14.01,2013-09-01 08:41:00,
2013-09-01 01:46:00,63.2,59.9,29.88,East,91,2.0,0.0,89,0.00,,FEW015,0.00,VWS V14.01,2013-09-01 08:46:00,
2013-09-01 01:51:00,63.2,59.9,29.88,East,101,1.0,0.0,89,0.00,,FEW015,0.00,VWS V14.01,2013-09-01 08:51:00,
2013-09-01 01:56:00,63.1,59.5,29.88,ESE,103,1.0,0.0,88,0.00,,FEW015,0.00,VWS V14.01,2013-09-01 08:56:00,
2013-09-01 02:01:00,63.0,59.7,29.88,ESE,104,3.0,0.0,89,0.00,,FEW015,0.00,VWS V14.01,2013-09-01 09:01:00,
2013-09-01 02:06:00,63.0,59.7,29.88,ESE,115,5.0,0.0,89,0.00,,BKN015,0.00,VWS V14.01,2013-09-01 09:06:00,
2013-09-01 02:11:00,62.9,59.6,29.88,ESE,102,1.0,0.0,89,0.00,,BKN015,0.00,VWS V14.01,2013-09-01 09:11:00,
2013-09-01 02:16:00,62.9,59.6,29.88,ESE,103,2.0,0.0,89,0.00,,BKN015,0.00,VWS V14.01,2013-09-01 09:16:00,
2013-09-01 02:21:00,62.8,59.5,29.88,ESE,111,0.0,0.0,89,0.00,,BKN015,0.00,VWS V14.01,2013-09-01 09:21:00,
2013-09-01 02:26:00,62.7,59.4,29.89,East,101,0.0,0.0,89,0.00,,OVC015,0.00,VWS V14.01,2013-09-01 09:26:00,
2013-09-01 02:31:00,62.6,59.3,29.88,SE,133,1.0,0.0,89,0.00,,OVC015,0.00,VWS V14.01,2013-09-01 09:31:00,
2013-09-01 02:36:00,62.6,59.3,29.89,SE,124,2.0,0.0,89,0.00,,OVC015,0.00,VWS V14.01,2013-09-01 09:36:00,
2013-09-01 02:41:00,62.6,59.3,29.89,ESE,123,1.0,0.0,89,0.00,,OVC015,0.00,VWS V14.01,2013-09-01 09:41:00,
2013-09-01 02:46:00,62.6,59.3,29.89,ESE,107,2.0,0.0,89,0.00,,OVC013,0.00,VWS V14.01,2013-09-01 09:46:00,
2013-09-01 02:51:00,62.5,59.2,29.89,ESE,105,2.0,0.0,89,0.00,,OVC013,0.00,VWS V14.01,2013-09-01 09:51:00,
2013-09-01 02:56:00,62.4,59.1,29.89,ESE,121,1.0,0.0,89,0.00,,OVC013,0.00,VWS V14.01,2013-09-01 09:56:00,
2013-09-01 03:01:00,62.4,59.1,29.89,East,98,2.0,0.0,89,0.00,,OVC013,0.00,VWS V14.01,2013-09-01 10:01:00,
2013-09-01 03:06:00,62.3,59.0,29.89,East,98,0.0,0.0,89,0.00,,OVC013,0.00,VWS V14.01,2013-09-01 10:06:00,
2013-09-01 03:11:00,62.2,58.9,29.89,East,101,0.0,0.0,89,0.00,,OVC013,0.00,VWS V14.01,2013-09-01 10:11:00,
2013-09-01 03:16:00,62.1,59.1,29.89,East,96,0.0,0.0,90,0.00,,OVC013,0.00,VWS V14.01,2013-09-01 10:16:00,
2013-09-01 03:21:00,62.0,58.7,29.89,SE,130,5.0,0.0,89,0.00,,OVC013,0.00,VWS V14.01,2013-09-01 10:21:00,
2013-09-01 03:26:00,61.8,58.5,29.89,East,96,0.0,0.0,89,0.00,,OVC013,0.00,VWS V14.01,2013-09-01 10:26:00,
2013-09-01 03:31:00,61.6,58.6,29.89,East,96,0.0,0.0,90,0.00,,OVC013,0.00,VWS V14.01,2013-09-01 10:31:00,
2013-09-01 03:36:00,61.3,58.3,29.89,ESE,111,0.0,0.0,90,0.00,,OVC013,0.00,VWS V14.01,2013-09-01 10:36:00,
2013-09-01 03:41:00,61.2,58.2,29.89,ESE,111,0.0,0.0,90,0.00,,OVC013,0.00,VWS V14.01,2013-09-01 10:41:00,
2013-09-01 03:46:00,61.1,58.5,29.89,ESE,110,0.0,0.0,91,0.00,,OVC013,0.00,VWS V14.01,2013-09-01 10:46:00,
2013-09-01 03:51:00,60.9,58.3,29.89,ESE,111,0.0,0.0,91,0.00,,OVC013,0.00,VWS V14.01,2013-09-01 10:51:00,
2013-09-01 03:56:00,60.7,58.1,29.90,ESE,111,0.0,0.0,91,0.00,,OVC013,0.00,VWS V14.01,2013-09-01 10:56:00,
2013-09-01 04:01:00,60.6,58.0,29.90,ESE,111,0.0,0.0,91,0.00,,OVC013,0.00,VWS V14.01,2013-09-01 11:01:00,
2013-09-01 04:06:00,60.3,57.7,29.90,ESE,112,0.0,0.0,91,0.00,,OVC013,0.00,VWS V14.01,2013-09-01 11:06:00,
2013-09-01 04:11:00,60.0,57.4,29.90,ESE,111,0.0,0.0,91,0.00,,OVC013,0.00,VWS V14.01,2013-09-01 11:11:00,
2013-09-01 04:16:00,59.7,57.1,29.89,ESE,111,0.0,0.0,91,0.00,,OVC013,0.00,VWS V14.01,2013-09-01 11:16:00,
2013-09-01 04:21:00,59.5,57.2,29.90,ESE,111,0.0,0.0,92,0.00,,OVC013,0.00,VWS V14.01,2013-09-01 11:21:00,
2013-09-01 04:26:00,59.3,57.0,29.90,ESE,111,0.0,0.0,92,0.00,,OVC013,0.00,VWS V14.01,2013-09-01 11:26:00,
2013-09-01 04:31:00,59.1,56.8,29.90,ESE,110,0.0,0.0,92,0.00,,OVC013,0.00,VWS V14.01,2013-09-01 11:31:00,
2013-09-01 04:36:00,59.0,56.7,29.90,ESE,112,0.0,0.0,92,0.00,,OVC013,0.00,VWS V14.01,2013-09-01 11:36:00,
2013-09-01 04:41:00,58.8,56.8,29.89,ESE,110,0.0,0.0,93,0.00,,OVC013,0.00,VWS V14.01,2013-09-01 11:41:00,
2013-09-01 04:46:00,58.6,56.6,29.90,ESE,111,0.0,0.0,93,0.00,,OVC013,0.00,VWS V14.01,2013-09-01 11:46:00,
2013-09-01 04:51:00,58.6,56.6,29.90,ESE,111,0.0,0.0,93,0.00,,OVC013,0.00,VWS V14.01,2013-09-01 11:51:00,
2013-09-01 04:56:00,58.4,56.4,29.90,ESE,111,0.0,0.0,93,0.00,,OVC013,0.00,VWS V14.01,2013-09-01 11:56:00,
2013-09-01 05:01:00,58.2,56.2,29.90,ESE,111,0.0,0.0,93,0.00,,OVC013,0.00,VWS V14.01,2013-09-01 12:01:00,
2013-09-01 05:06:00,58.2,56.2,29.90,ESE,111,0.0,0.0,93,0.00,,OVC013,0.00,VWS V14.01,2013-09-01 12:06:00,
2013-09-01 05:11:00,58.1,56.1,29.90,ESE,111,0.0,0.0,93,0.00,,OVC013,0.00,VWS V14.01,2013-09-01 12:11:00,
2013-09-01 05:16:00,57.9,55.9,29.90,ESE,111,0.0,0.0,93,0.00,,OVC013,0.00,VWS V14.01,2013-09-01 12:16:00,
2013-09-01 05:21:00,57.7,56.0,29.90,ESE,111,0.0,0.0,94,0.00,,OVC013,0.00,VWS V14.01,2013-09-01 12:21:00,
2013-09-01 05:26:00,57.7,56.0,29.90,ESE,110,0.0,0.0,94,0.00,,OVC013,0.00,VWS V14.01,2013-09-01 12:26:00,
2013-09-01 05:31:00,57.6,55.9,29.90,ESE,111,0.0,0.0,94,0.00,,OVC013,0.00,VWS V14.01,2013-09-01 12:31:00,
2013-09-01 05:36:00,57.6,55.9,29.90,ESE,111,0.0,0.0,94,0.00,,OVC013,0.00,VWS V14.01,2013-09-01 12:36:00,
2013-09-01 05:41:00,57.5,55.8,29.90,ESE,111,0.0,0.0,94,0.00,,OVC013,0.00,VWS V14.01,2013-09-01 12:41:00,
2013-09-01 05:46:00,57.5,55.8,29.90,ESE,111,0.0,0.0,94,0.00,,OVC013,0.00,VWS V14.01,2013-09-01 12:46:00,
2013-09-01 05:51:00,57.4,55.7,29.90,ESE,111,0.0,0.0,94,0.00,,OVC013,0.00,VWS V14.01,2013-09-01 12:51:00,
2013-09-01 05:56:00,57.3,55.6,29.90,ESE,111,0.0,0.0,94,0.00,,OVC013,0.00,VWS V14.01,2013-09-01 12:56:00,
2013-09-01 06:01:00,57.2,55.5,29.90,ESE,111,0.0,0.0,94,0.00,,OVC013,0.00,VWS V14.01,2013-09-01 13:01:00,
2013-09-01 06:06:00,57.1,55.4,29.91,ESE,111,0.0,0.0,94,0.00,,OVC013,0.00,VWS V14.01,2013-09-01 13:06:00,
2013-09-01 06:11:00,57.1,55.4,29.90,ESE,112,0.0,0.0,94,0.00,,OVC013,0.00,VWS V14.01,2013-09-01 13:11:00,
2013-09-01 06:16:00,57.0,55.3,29.90,ESE,111,0.0,0.0,94,0.00,,OVC013,0.00,VWS V14.01,2013-09-01 13:16:00,
2013-09-01 06:21:00,56.8,55.1,29.90,ESE,111,0.0,0.0,94,0.00,,OVC013,0.00,VWS V14.01,2013-09-01 13:21:00,
2013-09-01 06:26:00,56.7,55.0,29.91,ESE,111,0.0,0.0,94,0.00,,OVC013,0.00,VWS V14.01,2013-09-01 13:26:00,
2013-09-01 06:31:00,56.7,55.0,29.91,ESE,111,0.0,0.0,94,0.00,,OVC013,0.00,VWS V14.01,2013-09-01 13:31:00,
2013-09-01 06:36:00,56.8,55.4,29.91,ESE,111,0.0,0.0,95,0.00,,OVC013,0.00,VWS V14.01,2013-09-01 13:36:00,
2013-09-01 06:41:00,56.9,55.5,29.91,ESE,111,0.0,0.0,95,0.00,,OVC013,0.00,VWS V14.01,2013-09-01 13:41:00,
2013-09-01 06:46:00,57.0,55.6,29.91,ESE,111,0.0,0.0,95,0.00,,OVC015,0.00,VWS V14.01,2013-09-01 13:46:00,
2013-09-01 06:51:00,56.9,55.5,29.91,ESE,111,0.0,0.0,95,0.00,,OVC015,0.00,VWS V14.01,2013-09-01 13:51:00,
2013-09-01 06:56:00,57.0,55.6,29.91,ESE,110,0.0,0.0,95,0.00,,OVC015,0.00,VWS V14.01,2013-09-01 13:56:00,
2013-09-01 07:01:00,57.0,55.6,29.91,ESE,111,0.0,0.0,95,0.00,,OVC015,0.00,VWS V14.01,2013-09-01 14:01:00,
2013-09-01 07:06:00,57.0,55.6,29.91,ESE,112,0.0,0.0,95,0.00,,OVC015,0.00,VWS V14.01,2013-09-01 14:06:00,
2013-09-01 07:11:00,57.0,55.6,29.91,ESE,111,0.0,0.0,95,0.00,,OVC015,0.00,VWS V14.01,2013-09-01 14:11:00,
2013-09-01 07:16:00,57.0,55.6,29.91,ESE,111,0.0,0.0,95,0.00,,OVC015,0.00,VWS V14.01,2013-09-01 14:16:00,
2013-09-01 07:21:00,57.0,55.6,29.91,ESE,111,0.0,0.0,95,0.00,,OVC015,0.00,VWS V14.01,2013-09-01 14:21:00,
2013-09-01 07:26:00,57.0,55.6,29.91,ESE,111,0.0,0.0,95,0.00,,OVC015,0.00,VWS V14.01,2013-09-01 14:26:00,
2013-09-01 07:31:00,57.3,55.9,29.91,ESE,111,0.0,0.0,95,0.00,,OVC015,0.00,VWS V14.01,2013-09-01 14:31:00,
2013-09-01 07:35:00,57.6,56.2,29.91,ESE,111,0.0,0.0,95,0.00,,OVC015,0.00,VWS V14.01,2013-09-01 14:35:00,
2013-09-01 07:40:00,58.3,56.9,29.91,ESE,111,0.0,0.0,95,0.00,,OVC015,0.00,VWS V14.01,2013-09-01 14:40:00,
2013-09-01 07:45:00,59.0,57.6,29.91,ESE,111,0.0,0.0,95,0.00,,OVC020,0.00,VWS V14.01,2013-09-01 14:45:00,
2013-09-01 07:50:00,60.0,58.6,29.91,ESE,111,0.0,0.0,95,0.00,,OVC020,0.00,VWS V14.01,2013-09-01 14:50:00,
2013-09-01 07:55:00,60.9,59.5,29.91,ESE,111,0.0,0.0,95,0.00,,OVC020,0.00,VWS V14.01,2013-09-01 14:55:00,
2013-09-01 08:00:00,61.3,59.6,29.91,ESE,111,0.0,0.0,94,0.00,,OVC020,0.00,VWS V14.01,2013-09-01 15:00:00,
2013-09-01 08:05:00,61.4,59.7,29.90,SE,146,0.0,0.0,94,0.00,,OVC017,0.00,VWS V14.01,2013-09-01 15:05:00,
2013-09-01 08:10:00,62.2,60.5,29.90,SE,145,0.0,0.0,94,0.00,,OVC017,0.00,VWS V14.01,2013-09-01 15:10:00,
2013-09-01 08:15:00,62.9,60.5,29.90,NW,309,0.0,0.0,92,0.00,,OVC017,0.00,VWS V14.01,2013-09-01 15:15:00,
2013-09-01 08:20:00,63.3,60.0,29.90,ENE,65,0.0,0.0,89,0.00,,OVC017,0.00,VWS V14.01,2013-09-01 15:20:00,
2013-09-01 08:25:00,63.8,60.2,29.90,NNE,15,0.0,0.0,88,0.00,,OVC017,0.00,VWS V14.01,2013-09-01 15:25:00,
2013-09-01 08:30:00,64.2,59.6,29.90,SW,227,0.0,0.0,85,0.00,,OVC017,0.00,VWS V14.01,2013-09-01 15:30:00,
2013-09-01 08:35:00,64.3,59.4,29.90,South,178,0.0,0.0,84,0.00,,OVC017,0.00,VWS V14.01,2013-09-01 15:35:00,
2013-09-01 08:40:00,64.1,59.2,29.90,WSW,248,0.0,0.0,84,0.00,,OVC017,0.00,VWS V14.01,2013-09-01 15:40:00,
2013-09-01 08:45:00,64.5,59.9,29.90,WNW,290,0.0,0.0,85,0.00,,OVC015,0.00,VWS V14.01,2013-09-01 15:45:00,
2013-09-01 08:50:00,64.8,59.2,29.90,ENE,67,0.0,0.0,82,0.00,,OVC015,0.00,VWS V14.01,2013-09-01 15:50:00,
2013-09-01 08:55:00,64.6,59.3,29.90,ENE,60,0.0,0.0,83,0.00,,OVC015,0.00,VWS V14.01,2013-09-01 15:55:00,
2013-09-01 09:00:00,65.2,59.9,29.90,SE,138,0.0,0.0,83,0.00,,OVC015,0.00,VWS V14.01,2013-09-01 16:00:00,
2013-09-01 09:05:00,65.3,59.7,29.90,NW,311,0.0,0.0,82,0.00,,OVC013,0.00,VWS V14.01,2013-09-01 16:05:00,
2013-09-01 09:10:00,65.1,59.5,29.89,NW,312,0.0,0.0,82,0.00,,OVC013,0.00,VWS V14.01,2013-09-01 16:10:00,
2013-09-01 09:15:00,65.3,60.0,29.89,NW,307,0.0,0.0,83,0.00,,OVC013,0.00,VWS V14.01,2013-09-01 16:15:00,
2013-09-01 09:20:00,65.8,59.8,29.89,NNW,346,2.0,0.0,81,0.00,,OVC013,0.00,VWS V14.01,2013-09-01 16:20:00,
2013-09-01 09:25:00,66.3,59.6,29.89,NE,38,2.0,0.0,79,0.00,,BKN013,0.00,VWS V14.01,2013-09-01 16:25:00,
2013-09-01 09:30:00,66.2,59.9,29.89,NW,317,2.0,0.0,80,0.00,,BKN013,0.00,VWS V14.01,2013-09-01 16:30:00,
2013-09-01 09:35:00,66.1,59.8,29.89,NNW,331,0.0,0.0,80,0.00,,BKN013,0.00,VWS V14.01,2013-09-01 16:35:00,
2013-09-01 09:40:00,66.3,60.0,29.89,ESE,110,0.0,0.0,80,0.00,,BKN013,0.00,VWS V14.01,2013-09-01 16:40:00,
2013-09-01 09:45:00,66.4,60.4,29.89,ESE,107,0.0,0.0,81,0.00,,FEW013,0.00,VWS V14.01,2013-09-01 16:45:00,
2013-09-01 09:50:00,66.9,60.2,29.89,East,101,3.0,0.0,79,0.00,,FEW013,0.00,VWS V14.01,2013-09-01 16:50:00,
2013-09-01 09:55:00,66.9,60.2,29.89,ESE,102,0.0,0.0,79,0.00,,FEW013,0.00,VWS V14.01,2013-09-01 16:55:00,
2013-09-01 10:00:00,67.6,60.1,29.89,NE,38,2.0,0.0,77,0.00,,FEW013,0.00,VWS V14.01,2013-09-01 17:00:00,
2013-09-01 10:05:00,67.8,60.3,29.89,NNW,346,0.0,0.0,77,0.00,,CLR,0.00,VWS V14.01,2013-09-01 17:05:00,
2013-09-01 10:10:00,68.4,60.9,29.89,WNW,298,2.0,0.0,77,0.00,,CLR,0.00,VWS V14.01,2013-09-01 17:10:00,
2013-09-01 10:15:00,68.8,60.6,29.89,NW,325,3.0,0.0,75,0.00,,CLR,0.00,VWS V14.01,2013-09-01 17:15:00,
2013-09-01 10:20:00,68.9,60.7,29.88,NW,314,2.0,0.0,75,0.00,,CLR,0.00,VWS V14.01,2013-09-01 17:20:00,
2013-09-01 10:25:00,69.0,60.8,29.88,SSE,159,2.0,0.0,75,0.00,,CLR,0.00,VWS V14.01,2013-09-01 17:25:00,
2013-09-01 10:30:00,68.9,61.0,29.88,WNW,303,1.0,0.0,76,0.00,,CLR,0.00,VWS V14.01,2013-09-01 17:30:00,
2013-09-01 10:35:00,69.6,61.3,29.88,SW,226,0.0,0.0,75,0.00,,CLR,0.00,VWS V14.01,2013-09-01 17:35:00,
2013-09-01 10:40:00,70.0,61.3,29.88,ENE,58,4.0,0.0,74,0.00,,CLR,0.00,VWS V14.01,2013-09-01 17:40:00,
2013-09-01 10:45:00,70.1,61.0,29.88,West,267,2.0,0.0,73,0.00,,CLR,0.00,VWS V14.01,2013-09-01 17:45:00,
2013-09-01 10:50:00,70.1,61.4,29.88,NNE,25,0.0,0.0,74,0.00,,CLR,0.00,VWS V14.01,2013-09-01 17:50:00,
2013-09-01 10:55:00,70.9,62.2,29.88,SW,233,3.0,0.0,74,0.00,,CLR,0.00,VWS V14.01,2013-09-01 17:55:00,
2013-09-01 11:00:00,71.3,61.4,29.88,NNW,329,2.0,0.0,71,0.00,,CLR,0.00,VWS V14.01,2013-09-01 18:00:00,
2013-09-01 11:05:00,71.9,61.6,29.88,ENE,65,0.0,0.0,70,0.00,,CLR,0.00,VWS V14.01,2013-09-01 18:05:00,
2013-09-01 11:10:00,72.2,61.1,29.88,NNW,338,2.0,0.0,68,0.00,,CLR,0.00,VWS V14.01,2013-09-01 18:10:00,
2013-09-01 11:15:00,72.7,61.5,29.87,SSW,205,0.0,0.0,68,0.00,,CLR,0.00,VWS V14.01,2013-09-01 18:15:00,
2013-09-01 11:20:00,73.0,61.4,29.87,WSW,246,0.0,0.0,67,0.00,,CLR,0.00,VWS V14.01,2013-09-01 18:20:00,
2013-09-01 11:25:00,73.0,61.4,29.87,NW,313,3.0,0.0,67,0.00,,CLR,0.00,VWS V14.01,2013-09-01 18:25:00,
2013-09-01 11:30:00,73.4,61.4,29.87,NW,311,3.0,0.0,66,0.00,,CLR,0.00,VWS V14.01,2013-09-01 18:30:00,
2013-09-01 11:35:00,73.5,61.0,29.87,ESE,123,0.0,0.0,65,0.00,,CLR,0.00,VWS V14.01,2013-09-01 18:35:00,
2013-09-01 11:40:00,74.0,61.5,29.86,East,89,0.0,0.0,65,0.00,,CLR,0.00,VWS V14.01,2013-09-01 18:40:00,
2013-09-01 11:45:00,74.7,60.8,29.86,SSW,211,2.0,0.0,62,0.00,,CLR,0.00,VWS V14.01,2013-09-01 18:45:00,
2013-09-01 11:50:00,74.8,60.5,29.86,NNE,26,1.0,0.0,61,0.00,,CLR,0.00,VWS V14.01,2013-09-01 18:50:00,
2013-09-01 11:55:00,75.3,61.4,29.86,NW,314,4.0,0.0,62,0.00,,CLR,0.00,VWS V14.01,2013-09-01 18:55:00,
2013-09-01 12:00:00,75.1,60.8,29.86,SSW,209,1.0,0.0,61,0.00,,CLR,0.00,VWS V14.01,2013-09-01 19:00:00,
2013-09-01 12:05:00,74.6,61.2,29.86,NW,326,2.0,0.0,63,0.00,,CLR,0.00,VWS V14.01,2013-09-01 19:05:00,
2013-09-01 12:10:00,75.0,61.1,29.86,NW,318,0.0,0.0,62,0.00,,CLR,0.00,VWS V14.01,2013-09-01 19:10:00,
2013-09-01 12:15:00,75.5,60.7,29.85,SSW,195,3.0,0.0,60,0.00,,CLR,0.00,VWS V14.01,2013-09-01 19:15:00,
2013-09-01 12:20:00,75.8,61.9,29.86,WNW,303,4.0,0.0,62,0.00,,CLR,0.00,VWS V14.01,2013-09-01 19:20:00,
2013-09-01 12:25:00,76.3,61.9,29.86,WNW,294,1.0,0.0,61,0.00,,CLR,0.00,VWS V14.01,2013-09-01 19:25:00,
2013-09-01 12:30:00,76.7,61.3,29.85,SW,217,3.0,0.0,59,0.00,,CLR,0.00,VWS V14.01,2013-09-01 19:30:00,
2013-09-01 12:35:00,76.4,61.5,29.85,WNW,300,3.0,0.0,60,0.00,,CLR,0.00,VWS V14.01,2013-09-01 19:35:00,
2013-09-01 12:40:00,76.5,61.1,29.85,ENE,68,3.0,0.0,59,0.00,,CLR,0.00,VWS V14.01,2013-09-01 19:40:00,
2013-09-01 12:45:00,76.8,61.4,29.85,WNW,286,3.0,0.0,59,0.00,,CLR,0.00,VWS V14.01,2013-09-01 19:45:00,
2013-09-01 12:50:00,77.1,62.2,29.85,NW,304,4.0,0.0,60,0.00,,CLR,0.00,VWS V14.01,2013-09-01 19:50:00,
2013-09-01 12:55:00,77.3,61.9,29.85,NW,306,3.0,0.0,59,0.00,,CLR,0.00,VWS V14.01,2013-09-01 19:55:00,
2013-09-01 13:00:00,78.0,62.0,29.84,NE,43,0.0,0.0,58,0.00,,CLR,0.00,VWS V14.01,2013-09-01 20:00:00,
2013-09-01 13:05:00,78.4,62.9,29.84,West,273,1.0,0.0,59,0.00,,CLR,0.00,VWS V14.01,2013-09-01 20:05:00,
2013-09-01 13:10:00,78.7,62.7,29.84,NNE,20,2.0,0.0,58,0.00,,CLR,0.00,VWS V14.01,2013-09-01 20:10:00,
2013-09-01 13:15:00,78.4,62.9,29.84,SE,135,2.0,0.0,59,0.00,,CLR,0.00,VWS V14.01,2013-09-01 20:15:00,
2013-09-01 13:20:00,78.1,62.6,29.84,East,101,5.0,0.0,59,0.00,,CLR,0.00,VWS V14.01,2013-09-01 20:20:00,
2013-09-01 13:25:00,78.2,63.7,29.84,ESE,117,3.0,0.0,61,0.00,,CLR,0.00,VWS V14.01,2013-09-01 20:25:00,
2013-09-01 13:30:00,78.2,63.2,29.84,West,265,1.0,0.0,60,0.00,,CLR,0.00,VWS V14.01,2013-09-01 20:30:00,
2013-09-01 13:35:00,78.1,62.6,29.84,South,190,3.0,0.0,59,0.00,,CLR,0.00,VWS V14.01,2013-09-01 20:35:00,
2013-09-01 13:40:00,78.2,63.2,29.84,ESE,110,1.0,0.0,60,0.00,,CLR,0.00,VWS V14.01,2013-09-01 20:40:00,
2013-09-01 13:45:00,78.1,62.6,29.84,East,90,2.0,0.0,59,0.00,,CLR,0.00,VWS V14.01,2013-09-01 20:45:00,
2013-09-01 13:50:00,78.8,62.8,29.84,ENE,63,2.0,0.0,58,0.00,,CLR,0.00,VWS V14.01,2013-09-01 20:50:00,
2013-09-01 13:55:00,79.5,62.5,29.84,WNW,285,3.0,0.0,56,0.00,,CLR,0.00,VWS V14.01,2013-09-01 20:55:00,
2013-09-01 14:00:00,79.0,63.0,29.84,East,90,1.0,0.0,58,0.00,,CLR,0.00,VWS V14.01,2013-09-01 21:00:00,
2013-09-01 14:05:00,78.8,62.3,29.84,East,90,1.0,0.0,57,0.00,,CLR,0.00,VWS V14.01,2013-09-01 21:05:00,
2013-09-01 14:10:00,78.9,62.4,29.83,ESE,114,1.0,0.0,57,0.00,,CLR,0.00,VWS V14.01,2013-09-01 21:10:00,
2013-09-01 14:15:00,79.4,63.3,29.83,SE,144,0.0,0.0,58,0.00,,CLR,0.00,VWS V14.01,2013-09-01 21:15:00,
2013-09-01 14:20:00,79.9,62.3,29.83,SSW,195,1.0,0.0,55,0.00,,CLR,0.00,VWS V14.01,2013-09-01 21:20:00,
2013-09-01 14:25:00,79.4,63.3,29.83,SSW,198,2.0,0.0,58,0.00,,CLR,0.00,VWS V14.01,2013-09-01 21:25:00,
2013-09-01 14:30:00,79.4,63.8,29.83,South,191,2.0,0.0,59,0.00,,CLR,0.00,VWS V14.01,2013-09-01 21:30:00,
2013-09-01 14:35:00,79.5,63.9,29.83,SSW,209,2.0,0.0,59,0.00,,CLR,0.00,VWS V14.01,2013-09-01 21:35:00,
2013-09-01 14:40:00,79.5,62.5,29.82,East,101,6.0,0.0,56,0.00,,CLR,0.00,VWS V14.01,2013-09-01 21:40:00,
2013-09-01 14:45:00,79.3,62.8,29.82,East,80,1.0,0.0,57,0.00,,CLR,0.00,VWS V14.01,2013-09-01 21:45:00,
2013-09-01 14:50:00,79.2,61.7,29.83,East,90,4.0,0.0,55,0.00,,CLR,0.00,VWS V14.01,2013-09-01 21:50:00,
2013-09-01 14:55:00,79.5,61.9,29.82,NE,53,0.0,0.0,55,0.00,,CLR,0.00,VWS V14.01,2013-09-01 21:55:00,
2013-09-01 15:00:00,80.1,62.5,29.82,ESE,107,3.0,0.0,55,0.00,,CLR,0.00,VWS V14.01,2013-09-01 22:00:00,
2013-09-01 15:05:00,80.0,61.9,29.82,SE,133,1.0,0.0,54,0.00,,CLR,0.00,VWS V14.01,2013-09-01 22:05:00,
2013-09-01 15:10:00,80.3,61.6,29.82,ESE,102,1.0,0.0,53,0.00,,CLR,0.00,VWS V14.01,2013-09-01 22:10:00,
2013-09-01 15:15:00,80.5,61.3,29.82,SE,128,2.0,0.0,52,0.00,,CLR,0.00,VWS V14.01,2013-09-01 22:15:00,
2013-09-01 15:20:00,80.4,60.6,29.82,East,88,1.0,0.0,51,0.00,,CLR,0.00,VWS V14.01,2013-09-01 22:20:00,
2013-09-01 15:25:00,80.2,61.0,29.81,ESE,114,4.0,0.0,52,0.00,,CLR,0.00,VWS V14.01,2013-09-01 22:25:00,
2013-09-01 15:30:00,80.3,60.5,29.81,ESE,117,1.0,0.0,51,0.00,,CLR,0.00,VWS V14.01,2013-09-01 22:30:00,
2013-09-01 15:35:00,80.7,62.0,29.81,East,101,4.0,0.0,53,0.00,,CLR,0.00,VWS V14.01,2013-09-01 22:35:00,
2013-09-01 15:40:00,80.8,61.0,29.81,ESE,111,6.0,0.0,51,0.00,,CLR,0.00,VWS V14.01,2013-09-01 22:40:00,
2013-09-01 15:45:00,80.9,61.6,29.81,ESE,108,1.0,0.0,52,0.00,,FEW047,0.00,VWS V14.01,2013-09-01 22:45:00,
2013-09-01 15:50:00,81.1,61.3,29.81,ESE,111,4.0,0.0,51,0.00,,FEW047,0.00,VWS V14.01,2013-09-01 22:50:00,
2013-09-01 15:55:00,81.2,61.9,29.81,ESE,112,2.0,0.0,52,0.00,,FEW047,0.00,VWS V14.01,2013-09-01 22:55:00,
2013-09-01 16:00:00,81.6,61.7,29.81,SE,129,2.0,0.0,51,0.00,,FEW047,0.00,VWS V14.01,2013-09-01 23:00:00,
2013-09-01 16:05:00,81.7,61.3,29.81,SE,130,1.0,0.0,50,0.00,,SCT049,0.00,VWS V14.01,2013-09-01 23:05:00,
2013-09-01 16:10:00,81.4,61.5,29.80,East,97,3.0,0.0,51,0.00,,SCT049,0.00,VWS V14.01,2013-09-01 23:10:00,
2013-09-01 16:15:00,81.2,61.9,29.80,ESE,107,2.0,0.0,52,0.00,,SCT049,0.00,VWS V14.01,2013-09-01 23:15:00,
2013-09-01 16:20:00,80.8,61.0,29.81,East,100,3.0,0.0,51,0.00,,SCT049,0.00,VWS V14.01,2013-09-01 23:20:00,
2013-09-01 16:25:00,80.6,60.8,29.81,ESE,102,6.0,0.0,51,0.00,,FEW049,0.00,VWS V14.01,2013-09-01 23:25:00,
2013-09-01 16:30:00,80.4,61.2,29.81,East,84,3.0,0.0,52,0.00,,FEW049,0.00,VWS V14.01,2013-09-01 23:30:00,
2013-09-01 16:35:00,79.7,60.5,29.81,ESE,106,4.0,0.0,52,0.00,,FEW049,0.00,VWS V14.01,2013-09-01 23:35:00,
2013-09-01 16:40:00,78.9,60.9,29.81,ESE,114,4.0,0.0,54,0.00,,FEW049,0.00,VWS V14.01,2013-09-01 23:40:00,
2013-09-01 16:45:00,78.8,60.8,29.81,ESE,109,9.0,0.0,54,0.00,,CLR,0.00,VWS V14.01,2013-09-01 23:45:00,
2013-09-01 16:50:00,78.6,60.1,29.81,East,100,4.0,0.0,53,0.00,,CLR,0.00,VWS V14.01,2013-09-01 23:50:00,
2013-09-01 16:55:00,78.1,60.1,29.81,SE,136,9.0,0.0,54,0.00,,CLR,0.00,VWS V14.01,2013-09-01 23:55:00,
2013-09-01 17:00:00,77.1,59.2,29.81,SE,126,5.0,0.0,54,0.00,,CLR,0.00,VWS V14.01,2013-09-02 00:00:00,
2013-09-01 17:05:00,76.2,59.4,29.81,ESE,114,6.0,0.0,56,0.00,,CLR,0.00,VWS V14.01,2013-09-02 00:05:00,
2013-09-01 17:10:00,75.7,59.4,29.81,ESE,110,5.0,0.0,57,0.00,,CLR,0.00,VWS V14.01,2013-09-02 00:10:00,
2013-09-01 17:15:00,75.4,59.6,29.81,ENE,78,6.0,0.0,58,0.00,,CLR,0.00,VWS V14.01,2013-09-02 00:15:00,
2013-09-01 17:20:00,75.2,59.4,29.81,East,88,4.0,0.0,58,0.00,,CLR,0.00,VWS V14.01,2013-09-02 00:20:00,
2013-09-01 17:25:00,75.2,59.4,29.81,ENE,70,5.0,0.0,58,0.00,,CLR,0.00,VWS V14.01,2013-09-02 00:25:00,
2013-09-01 17:30:00,75.0,59.2,29.81,ESE,112,3.0,0.0,58,0.00,,CLR,0.00,VWS V14.01,2013-09-02 00:30:00,
2013-09-01 17:35:00,75.1,59.3,29.81,East,90,2.0,0.0,58,0.00,,CLR,0.00,VWS V14.01,2013-09-02 00:35:00,
2013-09-01 17:40:00,75.3,59.0,29.81,ESE,102,12.0,0.0,57,0.00,,CLR,0.00,VWS V14.01,2013-09-02 00:40:00,
2013-09-01 17:45:00,75.2,58.9,29.81,East,91,4.0,0.0,57,0.00,,CLR,0.00,VWS V14.01,2013-09-02 00:45:00,
2013-09-01 17:50:00,75.1,58.3,29.81,ESE,115,3.0,0.0,56,0.00,,CLR,0.00,VWS V14.01,2013-09-02 00:50:00,
2013-09-01 17:55:00,75.1,58.3,29.81,SE,125,7.0,0.0,56,0.00,,CLR,0.00,VWS V14.01,2013-09-02 00:55:00,
2013-09-01 18:00:00,75.1,58.3,29.81,SE,146,4.0,0.0,56,0.00,,CLR,0.00,VWS V14.01,2013-09-02 01:00:00,
2013-09-01 18:05:00,75.2,57.9,29.81,East,101,5.0,0.0,55,0.00,,CLR,0.00,VWS V14.01,2013-09-02 01:05:00,
2013-09-01 18:10:00,75.2,58.4,29.81,ESE,102,4.0,0.0,56,0.00,,CLR,0.00,VWS V14.01,2013-09-02 01:10:00,
2013-09-01 18:15:00,75.2,58.4,29.81,East,88,4.0,0.0,56,0.00,,CLR,0.00,VWS V14.01,2013-09-02 01:15:00,
2013-09-01 18:20:00,74.9,57.7,29.82,East,96,6.0,0.0,55,0.00,,CLR,0.00,VWS V14.01,2013-09-02 01:20:00,
2013-09-01 18:25:00,74.6,57.9,29.82,ESE,105,12.0,0.0,56,0.00,,CLR,0.00,VWS V14.01,2013-09-02 01:25:00,
2013-09-01 18:30:00,74.4,58.2,29.82,ESE,105,2.0,0.0,57,0.00,,CLR,0.00,VWS V14.01,2013-09-02 01:30:00,
2013-09-01 18:35:00,74.2,58.0,29.82,East,82,3.0,0.0,57,0.00,,CLR,0.00,VWS V14.01,2013-09-02 01:35:00,
2013-09-01 18:40:00,74.1,57.9,29.82,East,88,2.0,0.0,57,0.00,,CLR,0.00,VWS V14.01,2013-09-02 01:40:00,
2013-09-01 18:45:00,74.3,58.1,29.82,SE,133,5.0,0.0,57,0.00,,CLR,0.00,VWS V14.01,2013-09-02 01:45:00,
2013-09-01 18:50:00,74.0,57.8,29.82,ESE,107,6.0,0.0,57,0.00,,CLR,0.00,VWS V14.01,2013-09-02 01:50:00,
2013-09-01 18:55:00,73.5,57.8,29.82,ESE,109,3.0,0.0,58,0.00,,CLR,0.00,VWS V14.01,2013-09-02 01:55:00,
2013-09-01 19:00:00,73.0,57.8,29.83,ESE,109,9.0,0.0,59,0.00,,CLR,0.00,VWS V14.01,2013-09-02 02:00:00,
2013-09-01 19:05:00,72.6,57.5,29.83,ESE,110,7.0,0.0,59,0.00,,CLR,0.00,VWS V14.01,2013-09-02 02:05:00,
2013-09-01 19:10:00,72.2,57.6,29.83,ESE,106,1.0,0.0,60,0.00,,CLR,0.00,VWS V14.01,2013-09-02 02:10:00,
2013-09-01 19:15:00,71.8,57.6,29.83,ESE,109,2.0,0.0,61,0.00,,CLR,0.00,VWS V14.01,2013-09-02 02:15:00,
2013-09-01 19:20:00,71.5,57.4,29.83,ESE,119,2.0,0.0,61,0.00,,CLR,0.00,VWS V14.01,2013-09-02 02:20:00,
2013-09-01 19:25:00,71.4,57.3,29.83,ESE,123,4.0,0.0,61,0.00,,CLR,0.00,VWS V14.01,2013-09-02 02:25:00,
2013-09-01 19:30:00,71.1,57.4,29.83,East,101,1.0,0.0,62,0.00,,CLR,0.00,VWS V14.01,2013-09-02 02:30:00,
2013-09-01 19:35:00,70.7,57.5,29.83,ESE,103,0.0,0.0,63,0.00,,CLR,0.00,VWS V14.01,2013-09-02 02:35:00,
2013-09-01 19:40:00,70.3,57.1,29.83,ESE,104,0.0,0.0,63,0.00,,CLR,0.00,VWS V14.01,2013-09-02 02:40:00,
2013-09-01 19:45:00,69.8,57.5,29.83,ESE,103,0.0,0.0,65,0.00,,CLR,0.00,VWS V14.01,2013-09-02 02:45:00,
2013-09-01 19:50:00,69.2,57.0,29.83,ESE,103,0.0,0.0,65,0.00,,CLR,0.00,VWS V14.01,2013-09-02 02:50:00,
2013-09-01 19:55:00,68.8,57.4,29.83,ESE,103,0.0,0.0,67,0.00,,CLR,0.00,VWS V14.01,2013-09-02 02:55:00,
2013-09-01 20:00:00,68.5,57.1,29.83,East,99,1.0,0.0,67,0.00,,CLR,0.00,VWS V14.01,2013-09-02 03:00:00,
2013-09-01 20:05:00,68.4,57.0,29.83,East,99,0.0,0.0,67,0.00,,CLR,0.00,VWS V14.01,2013-09-02 03:05:00,
2013-09-01 20:10:00,68.2,57.2,29.83,East,99,0.0,0.0,68,0.00,,CLR,0.00,VWS V14.01,2013-09-02 03:10:00,
2013-09-01 20:15:00,67.6,57.1,29.83,East,99,0.0,0.0,69,0.00,,CLR,0.00,VWS V14.01,2013-09-02 03:15:00,
2013-09-01 20:20:00,66.9,57.2,29.83,East,100,0.0,0.0,71,0.00,,CLR,0.00,VWS V14.01,2013-09-02 03:20:00,
2013-09-01 20:25:00,66.4,57.1,29.83,East,100,0.0,0.0,72,0.00,,CLR,0.00,VWS V14.01,2013-09-02 03:25:00,
2013-09-01 20:30:00,66.0,57.1,29.83,East,99,0.0,0.0,73,0.00,,CLR,0.00,VWS V14.01,2013-09-02 03:30:00,
2013-09-01 20:35:00,65.9,57.4,29.83,East,100,0.0,0.0,74,0.00,,CLR,0.00,VWS V14.01,2013-09-02 03:35:00,
2013-09-01 20:40:00,65.6,57.5,29.84,East,100,0.0,0.0,75,0.00,,CLR,0.00,VWS V14.01,2013-09-02 03:40:00,
2013-09-01 20:45:00,65.3,57.5,29.84,East,100,0.0,0.0,76,0.00,,CLR,0.00,VWS V14.01,2013-09-02 03:45:00,
2013-09-01 20:50:00,65.0,57.3,29.84,East,100,0.0,0.0,76,0.00,,CLR,0.00,VWS V14.01,2013-09-02 03:50:00,
2013-09-01 20:55:00,64.7,57.3,29.84,East,100,0.0,0.0,77,0.00,,CLR,0.00,VWS V14.01,2013-09-02 03:55:00,
2013-09-01 21:00:00,64.5,57.5,29.84,East,99,0.0,0.0,78,0.00,,CLR,0.00,VWS V14.01,2013-09-02 04:00:00,
2013-09-01 21:01:00,64.4,57.4,29.84,East,100,0.0,0.0,78,0.00,,CLR,0.00,VWS V14.01,2013-09-02 04:01:00,
2013-09-01 21:06:00,64.0,57.4,29.84,East,99,0.0,0.0,79,0.00,,CLR,0.00,VWS V14.01,2013-09-02 04:06:00,
2013-09-01 21:11:00,63.8,57.2,29.84,East,100,0.0,0.0,79,0.00,,CLR,0.00,VWS V14.01,2013-09-02 04:11:00,
2013-09-01 21:16:00,63.7,57.1,29.84,East,99,0.0,0.0,79,0.00,,CLR,0.00,VWS V14.01,2013-09-02 04:16:00,
2013-09-01 21:21:00,63.5,57.2,29.85,East,100,0.0,0.0,80,0.00,,CLR,0.00,VWS V14.01,2013-09-02 04:21:00,
2013-09-01 21:26:00,63.6,57.3,29.85,South,183,0.0,0.0,80,0.00,,CLR,0.00,VWS V14.01,2013-09-02 04:26:00,
2013-09-01 21:31:00,63.6,57.3,29.85,South,183,0.0,0.0,80,0.00,,CLR,0.00,VWS V14.01,2013-09-02 04:31:00,
2013-09-01 21:36:00,63.3,57.0,29.86,South,183,0.0,0.0,80,0.00,,CLR,0.00,VWS V14.01,2013-09-02 04:36:00,
2013-09-01 21:41:00,63.0,57.1,29.86,South,183,0.0,0.0,81,0.00,,CLR,0.00,VWS V14.01,2013-09-02 04:41:00,
2013-09-01 21:46:00,62.9,57.3,29.86,South,184,0.0,0.0,82,0.00,,CLR,0.00,VWS V14.01,2013-09-02 04:46:00,
2013-09-01 21:51:00,62.8,56.9,29.86,South,184,0.0,0.0,81,0.00,,CLR,0.00,VWS V14.01,2013-09-02 04:51:00,
2013-09-01 21:56:00,62.5,56.9,29.86,South,184,0.0,0.0,82,0.00,,CLR,0.00,VWS V14.01,2013-09-02 04:56:00,
2013-09-01 22:01:00,62.3,57.1,29.87,South,183,0.0,0.0,83,0.00,,CLR,0.00,VWS V14.01,2013-09-02 05:01:00,
2013-09-01 22:06:00,62.4,57.2,29.86,South,184,0.0,0.0,83,0.00,,FEW055,0.00,VWS V14.01,2013-09-02 05:06:00,
2013-09-01 22:11:00,62.2,57.0,29.87,South,183,0.0,0.0,83,0.00,,FEW055,0.00,VWS V14.01,2013-09-02 05:11:00,
2013-09-01 22:16:00,62.0,56.8,29.87,South,184,0.0,0.0,83,0.00,,FEW055,0.00,VWS V14.01,2013-09-02 05:16:00,
2013-09-01 22:21:00,61.8,56.9,29.87,South,183,0.0,0.0,84,0.00,,FEW055,0.00,VWS V14.01,2013-09-02 05:21:00,
2013-09-01 22:26:00,61.7,56.8,29.87,South,183,0.0,0.0,84,0.00,,BKN055,0.00,VWS V14.01,2013-09-02 05:26:00,
2013-09-01 22:31:00,61.4,56.9,29.87,South,184,0.0,0.0,85,0.00,,BKN055,0.00,VWS V14.01,2013-09-02 05:31:00,
2013-09-01 22:36:00,61.2,56.7,29.87,South,183,0.0,0.0,85,0.00,,BKN055,0.00,VWS V14.01,2013-09-02 05:36:00,
2013-09-01 22:41:00,60.9,56.7,29.87,South,184,0.0,0.0,86,0.00,,BKN055,0.00,VWS V14.01,2013-09-02 05:41:00,
2013-09-01 22:46:00,60.7,56.5,29.87,South,183,0.0,0.0,86,0.00,,BKN055,0.00,VWS V14.01,2013-09-02 05:46:00,
2013-09-01 22:51:00,60.6,56.7,29.88,South,184,0.0,0.0,87,0.00,,BKN055,0.00,VWS V14.01,2013-09-02 05:51:00,
2013-09-01 22:56:00,60.5,56.6,29.88,South,183,0.0,0.0,87,0.00,,BKN055,0.00,VWS V14.01,2013-09-02 05:56:00,
2013-09-01 23:01:00,60.4,56.5,29.87,South,182,0.0,0.0,87,0.00,,BKN055,0.00,VWS V14.01,2013-09-02 06:01:00,
2013-09-01 23:06:00,60.5,56.6,29.87,South,182,0.0,0.0,87,0.00,,SCT080,0.00,VWS V14.01,2013-09-02 06:06:00,
2013-09-01 23:11:00,60.6,56.7,29.87,South,183,0.0,0.0,87,0.00,,SCT080,0.00,VWS V14.01,2013-09-02 06:11:00,
2013-09-01 23:16:00,60.7,56.8,29.88,South,183,0.0,0.0,87,0.00,,SCT080,0.00,VWS V14.01,2013-09-02 06:16:00,
2013-09-01 23:21:00,60.7,56.5,29.88,SSE,160,0.0,0.0,86,0.00,,SCT080,0.00,VWS V14.01,2013-09-02 06:21:00,
2013-09-01 23:26:00,60.7,56.8,29.87,SSE,161,0.0,0.0,87,0.00,,BKN080,0.00,VWS V14.01,2013-09-02 06:26:00,
2013-09-01 23:31:00,60.6,56.7,29.87,SSE,160,0.0,0.0,87,0.00,,BKN080,0.00,VWS V14.01,2013-09-02 06:31:00,
2013-09-01 23:36:00,60.5,56.6,29.88,SSE,161,0.0,0.0,87,0.00,,BKN080,0.00,VWS V14.01,2013-09-02 06:36:00,
2013-09-01 23:41:00,60.4,56.5,29.87,SSE,160,0.0,0.0,87,0.00,,BKN080,0.00,VWS V14.01,2013-09-02 06:41:00,
2013-09-01 23:46:00,60.3,56.4,29.87,SSE,161,0.0,0.0,87,0.00,,OVC080,0.00,VWS V14.01,2013-09-02 06:46:00,
2013-09-01 23:51:00,60.2,56.3,29.87,SSE,160,0.0,0.0,87,0.00,,OVC080,0.00,VWS V14.01,2013-09-02 06:51:00,
2013-09-01 23:56:00,60.1,56.2,29.88,SSE,148,0.0,0.0,87,0.00,,OVC080,0.00,VWS V14.01,2013-09-02 06:56:00,